Appleton, Washington
Current Conditions -  °F | °C
As of 3:53 PM on Monday 20 Oct 2014 (Local Time) from KDLS Reporting Station
Overcast Overcast  
Wind Chill: 15°   Ceiling: 9000
Heat Index: 15°   Visibility: 10mi
Dew Point: 12°   Wind: 3mph
Humidity: 81%   Direction: 180°S
Pressure: 29.8"   Gusts: NA
Location:  45.81°N, 121.27°W
Report Text: KDLS 202253Z AUTO 18003KT 10SM FEW070 BKN090 OVC100 15/12 A2980 RMK AO2 SLP092 T01500117
Loading
Personal Weather Stations






























Interactive Weather Map
Tropical Storm Tracking
New forecast layout! Learn more

10-Day Weather Forecast

Advertisements
Track Severe Weather on mobile